Time;durP1;ratioP1;P1;durP2;ratioP2;P2;SDS_P1;SDS_P2;PMS_P1;PMS_P2;Temp;Humidity;BMP_temperature;BMP_pressure;BME280_temperature;BME280_humidity;BME280_pressure;Samples;Min_cycle;Max_cycle;Signal;HPM_P1;HPM_P2
2021/10/21 00:02:16;;;;;;;5.28;1.08;;;15.40;99.90;;;;;;5053404;28;20164;-79
2021/10/21 00:04:42;;;;;;;4.28;0.70;;;15.40;99.90;;;;;;5050081;28;20655;-79
2021/10/21 00:07:09;;;;;;;5.35;0.60;;;15.30;99.90;;;;;;5032991;28;20659;-79
2021/10/21 00:09:34;;;;;;;2.63;0.73;;;15.30;99.90;;;;;;5033342;28;20176;-79
2021/10/21 00:12:03;;;;;;;9.65;0.63;;;15.20;99.90;;;;;;5033522;28;20686;-79
2021/10/21 00:14:29;;;;;;;1.77;0.63;;;15.00;99.90;;;;;;5045858;23;20168;-79
2021/10/21 00:16:56;;;;;;;0.88;0.47;;;14.90;99.90;;;;;;4993173;28;20232;-78
2021/10/21 00:19:21;;;;;;;1.65;0.77;;;14.90;99.90;;;;;;4992152;28;20190;-78
2021/10/21 00:21:50;;;;;;;8.30;1.08;;;14.80;99.90;;;;;;4991845;28;20169;-83
2021/10/21 00:24:17;;;;;;;2.05;0.60;;;14.70;99.90;;;;;;4992817;28;20165;-79
2021/10/21 00:26:43;;;;;;;2.00;0.52;;;14.60;99.90;;;;;;5012984;28;20185;-80
2021/10/21 00:29:09;;;;;;;1.55;0.80;;;14.60;99.90;;;;;;5012206;28;21074;-80
2021/10/21 00:31:35;;;;;;;2.45;0.85;;;14.60;99.90;;;;;;5013742;28;20248;-80
2021/10/21 00:34:00;;;;;;;3.28;0.70;;;14.50;99.90;;;;;;5013384;28;20548;-80
2021/10/21 00:36:26;;;;;;;2.22;0.68;;;14.30;99.90;;;;;;5013167;28;20208;-79
2021/10/21 00:38:52;;;;;;;4.82;0.43;;;14.30;99.90;;;;;;5013499;28;20188;-79
2021/10/21 00:41:17;;;;;;;2.10;0.70;;;14.40;99.90;;;;;;5013413;28;20252;-79
2021/10/21 00:43:43;;;;;;;4.47;0.50;;;14.30;99.90;;;;;;5013147;28;20173;-79
2021/10/21 00:46:11;;;;;;;2.60;0.82;;;14.30;99.90;;;;;;5012533;28;20552;-79
2021/10/21 00:48:37;;;;;;;4.60;0.77;;;14.40;99.90;;;;;;5012965;28;20703;-79
2021/10/21 00:51:08;;;;;;;2.58;0.73;;;14.40;99.90;;;;;;5013226;28;20196;-79
2021/10/21 00:53:35;;;;;;;2.75;1.00;;;14.30;99.90;;;;;;5012924;28;20171;-79
2021/10/21 00:56:03;;;;;;;3.90;0.80;;;14.40;99.90;;;;;;5011296;28;20270;-79
2021/10/21 00:58:30;;;;;;;2.10;0.80;;;14.50;99.90;;;;;;5012814;28;20180;-79
2021/10/21 01:00:55;;;;;;;2.97;0.95;;;14.30;99.90;;;;;;5012685;28;20300;-82
2021/10/21 01:03:21;;;;;;;3.90;0.70;;;14.00;99.90;;;;;;5012579;28;20652;-80
2021/10/21 01:05:47;;;;;;;2.95;0.80;;;13.80;99.90;;;;;;5012767;28;20189;-81
2021/10/21 01:08:13;;;;;;;5.57;0.60;;;13.80;99.90;;;;;;5012821;28;20227;-81
2021/10/21 01:10:39;;;;;;;2.70;0.88;;;13.70;99.90;;;;;;5012667;28;20263;-81
2021/10/21 01:13:05;;;;;;;5.97;1.17;;;13.70;99.90;;;;;;5012790;28;20256;-91
2021/10/21 01:15:31;;;;;;;4.88;1.05;;;13.60;99.90;;;;;;5012878;28;20353;-81
2021/10/21 01:17:57;;;;;;;1.70;0.75;;;13.70;99.90;;;;;;5012925;28;20668;-79
2021/10/21 01:20:24;;;;;;;4.45;0.90;;;13.60;99.90;;;;;;5013707;28;20528;-92
2021/10/21 01:22:55;;;;;;;5.95;0.68;;;13.60;99.90;;;;;;5013416;28;20172;-85
2021/10/21 01:25:25;;;;;;;2.42;1.00;;;13.50;99.90;;;;;;5014097;28;20185;-88
2021/10/21 01:27:51;;;;;;;4.28;1.52;;;13.60;99.90;;;;;;5013936;28;20184;-86
2021/10/21 01:30:27;;;;;;;13.80;1.42;;;13.50;99.90;;;;;;5013701;28;20177;-81
2021/10/21 01:32:58;;;;;;;3.55;1.15;;;13.40;99.90;;;;;;5013909;28;20712;-78
2021/10/21 01:35:24;;;;;;;7.43;1.10;;;13.40;99.90;;;;;;5014127;28;20563;-83
2021/10/21 01:37:50;;;;;;;6.07;1.15;;;13.30;99.90;;;;;;5013565;28;20192;-87
2021/10/21 01:40:19;;;;;;;4.13;1.17;;;13.20;99.90;;;;;;5011798;28;20180;-91
2021/10/21 01:42:45;;;;;;;6.00;1.08;;;13.10;99.90;;;;;;5014071;28;20180;-86
2021/10/21 01:45:24;;;;;;;7.82;1.17;;;13.20;99.90;;;;;;5014401;28;20237;-85
2021/10/21 01:47:51;;;;;;;9.80;1.13;;;13.30;99.90;;;;;;5015913;28;20270;-87
2021/10/21 01:50:18;;;;;;;9.48;1.05;;;13.20;99.90;;;;;;5012593;28;20216;-82
2021/10/21 01:52:44;;;;;;;3.17;0.95;;;13.10;99.90;;;;;;5013402;28;20195;-84
2021/10/21 01:55:11;;;;;;;7.22;1.25;;;13.20;99.90;;;;;;5014487;28;20192;-84
2021/10/21 01:57:37;;;;;;;8.77;1.05;;;13.20;99.90;;;;;;5020567;28;20196;-80
2021/10/21 02:00:05;;;;;;;7.82;1.05;;;13.20;99.90;;;;;;5029364;28;20169;-80
2021/10/21 02:02:31;;;;;;;6.00;1.48;;;13.10;99.90;;;;;;5030389;28;20188;-81
2021/10/21 02:04:57;;;;;;;2.88;0.77;;;13.00;99.90;;;;;;5030166;28;20180;-82
2021/10/21 02:07:22;;;;;;;3.50;0.88;;;13.10;99.90;;;;;;5028626;28;20516;-79
2021/10/21 02:09:48;;;;;;;6.32;1.35;;;13.10;99.90;;;;;;5029113;28;20165;-79
2021/10/21 02:12:14;;;;;;;13.95;1.75;;;13.10;99.90;;;;;;5022051;28;20188;-79
2021/10/21 02:14:39;;;;;;;5.55;1.20;;;13.00;99.90;;;;;;5025846;28;20211;-82
2021/10/21 02:17:06;;;;;;;7.47;1.10;;;13.00;99.90;;;;;;5025947;28;20232;-79
2021/10/21 02:19:33;;;;;;;6.32;0.80;;;13.00;99.90;;;;;;5028804;28;20168;-80
2021/10/21 02:21:59;;;;;;;6.35;0.95;;;12.90;99.90;;;;;;5023849;28;20252;-81
2021/10/21 02:24:24;;;;;;;8.93;1.42;;;12.90;99.90;;;;;;5017465;28;20590;-85
2021/10/21 02:26:50;;;;;;;4.13;0.90;;;13.00;99.90;;;;;;5015535;28;20219;-80
2021/10/21 02:29:16;;;;;;;3.00;0.77;;;12.90;99.90;;;;;;5016916;28;20199;-87
2021/10/21 02:31:41;;;;;;;11.50;1.50;;;12.80;99.90;;;;;;5016294;28;20259;-86
2021/10/21 02:34:07;;;;;;;4.25;0.90;;;12.80;99.90;;;;;;5016233;28;20169;-85
2021/10/21 02:36:33;;;;;;;6.88;1.70;;;12.70;99.90;;;;;;5015289;28;20243;-81
2021/10/21 02:39:00;;;;;;;8.50;1.13;;;12.80;99.90;;;;;;5016291;28;20193;-79
2021/10/21 02:41:27;;;;;;;8.30;1.30;;;12.70;99.90;;;;;;5015966;28;20165;-82
2021/10/21 02:43:52;;;;;;;3.83;1.23;;;12.80;99.90;;;;;;5015796;28;20183;-84
2021/10/21 02:46:18;;;;;;;12.98;2.65;;;12.90;99.90;;;;;;5015773;28;20165;-83
2021/10/21 02:48:44;;;;;;;5.95;1.30;;;13.00;99.90;;;;;;5015799;28;20180;-80
2021/10/21 02:51:09;;;;;;;2.13;0.93;;;13.00;99.90;;;;;;5015683;28;20180;-81
2021/10/21 02:53:35;;;;;;;8.32;1.15;;;12.90;99.90;;;;;;5015898;28;20176;-80
2021/10/21 02:56:01;;;;;;;2.72;0.93;;;12.90;99.90;;;;;;5015326;28;20685;-80
2021/10/21 02:58:26;;;;;;;7.40;1.63;;;12.70;99.90;;;;;;5015281;28;20188;-83
2021/10/21 03:00:52;;;;;;;4.80;1.05;;;12.70;99.90;;;;;;5015722;28;20625;-83
2021/10/21 03:03:18;;;;;;;1.52;0.70;;;12.70;99.90;;;;;;5015484;28;20177;-80
2021/10/21 03:05:43;;;;;;;6.68;0.77;;;12.60;99.90;;;;;;5016432;28;20165;-81
2021/10/21 03:08:09;;;;;;;9.00;0.98;;;12.60;99.90;;;;;;5014347;28;20247;-86
2021/10/21 03:10:34;;;;;;;0.63;0.50;;;12.50;99.90;;;;;;5015666;28;20176;-85
2021/10/21 03:13:00;;;;;;;9.05;0.80;;;12.50;99.90;;;;;;5015789;28;20263;-87
2021/10/21 03:15:26;;;;;;;2.15;0.90;;;12.40;99.90;;;;;;5015625;28;20270;-83
2021/10/21 03:17:53;;;;;;;4.40;0.93;;;12.30;99.90;;;;;;5015120;28;20185;-91
2021/10/21 03:20:18;;;;;;;7.13;0.80;;;12.40;99.90;;;;;;5014705;28;20180;-83
2021/10/21 03:22:44;;;;;;;2.72;0.73;;;12.50;99.90;;;;;;5015124;28;20243;-81
2021/10/21 03:25:11;;;;;;;8.60;0.55;;;12.40;99.90;;;;;;5014799;28;20177;-80
2021/10/21 03:27:38;;;;;;;2.70;0.60;;;12.40;99.90;;;;;;5014821;28;20212;-79
2021/10/21 03:30:05;;;;;;;2.92;0.50;;;12.50;99.90;;;;;;5015326;28;20185;-80
2021/10/21 03:32:32;;;;;;;4.65;0.57;;;12.40;99.90;;;;;;5016204;28;20751;-81
2021/10/21 03:34:58;;;;;;;2.88;0.70;;;12.40;99.90;;;;;;5013990;28;20184;-80
2021/10/21 03:37:24;;;;;;;1.38;0.50;;;12.40;99.90;;;;;;5013419;28;20271;-87
2021/10/21 03:39:50;;;;;;;1.67;0.50;;;12.30;99.90;;;;;;5014346;28;21091;-85
2021/10/21 03:42:20;;;;;;;2.08;0.47;;;12.30;99.90;;;;;;5014571;28;20211;-83
2021/10/21 03:44:47;;;;;;;2.65;0.50;;;12.30;99.90;;;;;;5014874;28;20186;-86
2021/10/21 03:47:12;;;;;;;3.33;0.70;;;12.20;99.90;;;;;;5014496;28;20258;-80
2021/10/21 03:49:38;;;;;;;4.60;0.70;;;12.10;99.90;;;;;;5013990;28;20609;-85
2021/10/21 03:52:04;;;;;;;4.93;0.93;;;12.00;99.90;;;;;;5014057;28;20251;-80
2021/10/21 03:54:31;;;;;;;8.88;0.52;;;12.00;99.90;;;;;;5014153;28;20266;-85
2021/10/21 03:56:57;;;;;;;8.07;1.15;;;11.90;99.90;;;;;;5014186;28;20220;-86
2021/10/21 03:59:22;;;;;;;3.30;1.25;;;11.80;99.90;;;;;;5014055;28;20204;-83
2021/10/21 04:01:48;;;;;;;4.03;1.10;;;11.70;99.90;;;;;;5013069;28;20554;-80
2021/10/21 04:04:14;;;;;;;3.50;1.10;;;11.70;99.90;;;;;;5014095;28;20617;-79
2021/10/21 04:06:41;;;;;;;10.38;1.35;;;11.60;99.90;;;;;;5013985;28;20211;-79
2021/10/21 04:09:07;;;;;;;6.00;1.48;;;11.50;99.90;;;;;;5013703;28;20328;-81
2021/10/21 04:11:33;;;;;;;8.93;1.13;;;11.50;99.90;;;;;;5014223;28;20199;-81
2021/10/21 04:14:00;;;;;;;8.48;0.93;;;11.40;99.90;;;;;;5014058;28;20208;-80
2021/10/21 04:16:26;;;;;;;7.97;0.95;;;11.40;99.90;;;;;;5013892;28;20218;-87
2021/10/21 04:18:51;;;;;;;10.23;1.20;;;11.40;99.90;;;;;;5013967;28;20200;-81
2021/10/21 04:21:17;;;;;;;10.25;2.25;;;11.40;99.90;;;;;;5013399;28;20176;-84
2021/10/21 04:23:43;;;;;;;6.03;1.15;;;11.40;99.90;;;;;;5013166;28;20180;-82
2021/10/21 04:26:10;;;;;;;3.20;1.02;;;11.40;99.90;;;;;;5014799;28;20173;-84
2021/10/21 04:28:36;;;;;;;9.13;1.20;;;11.50;99.90;;;;;;5014386;28;20189;-80
2021/10/21 04:31:01;;;;;;;8.98;1.08;;;11.40;99.90;;;;;;5013804;28;20177;-84
2021/10/21 04:33:45;;;;;;;4.60;1.30;;;11.40;99.90;;;;;;5016028;28;20740;-90
2021/10/21 04:36:11;;;;;;;11.18;1.17;;;11.40;99.90;;;;;;5014567;28;20212;-85
2021/10/21 04:38:37;;;;;;;5.97;1.02;;;11.40;99.90;;;;;;5016018;28;20326;-91
2021/10/21 04:41:03;;;;;;;2.80;1.15;;;11.40;99.90;;;;;;5013438;28;20234;-86
2021/10/21 04:43:29;;;;;;;10.18;1.15;;;11.40;99.90;;;;;;5014740;28;20172;-80
2021/10/21 04:45:55;;;;;;;15.20;1.85;;;11.40;99.90;;;;;;5018369;28;20255;-88
2021/10/21 04:48:21;;;;;;;4.75;1.00;;;11.30;99.90;;;;;;5018338;28;20196;-82
2021/10/21 04:50:46;;;;;;;4.25;0.95;;;11.30;99.90;;;;;;5015732;28;20161;-86
2021/10/21 04:53:13;;;;;;;8.98;1.25;;;11.30;99.90;;;;;;5016373;28;20651;-80
2021/10/21 04:55:39;;;;;;;5.75;1.17;;;11.30;99.90;;;;;;5018003;28;20243;-80
2021/10/21 04:58:05;;;;;;;5.68;1.20;;;11.30;99.90;;;;;;5017154;28;20180;-87
2021/10/21 05:00:33;;;;;;;13.43;1.27;;;11.30;99.90;;;;;;5015065;28;20195;-80
2021/10/21 05:03:10;;;;;;;3.22;1.55;;;11.20;99.90;;;;;;5016114;28;20204;-80
2021/10/21 05:05:36;;;;;;;9.52;1.35;;;11.30;99.90;;;;;;5017452;28;20160;-82
2021/10/21 05:08:02;;;;;;;7.75;1.30;;;11.30;99.90;;;;;;5015061;28;20184;-83
2021/10/21 05:10:28;;;;;;;10.80;1.20;;;11.20;99.90;;;;;;5011377;28;20172;-78
2021/10/21 05:12:54;;;;;;;9.48;1.50;;;11.20;99.90;;;;;;5014213;28;20171;-82
2021/10/21 05:15:23;;;;;;;11.80;2.67;;;11.20;99.90;;;;;;5012250;28;20623;-79
2021/10/21 05:17:52;;;;;;;20.80;1.70;;;11.20;99.90;;;;;;5014345;28;20196;-81
2021/10/21 05:20:17;;;;;;;5.57;1.30;;;11.20;99.90;;;;;;5012579;28;20188;-79
2021/10/21 05:22:43;;;;;;;10.43;1.67;;;11.20;99.90;;;;;;5014497;28;20585;-80
2021/10/21 05:25:10;;;;;;;8.30;1.60;;;11.30;99.90;;;;;;5016299;28;20165;-80
2021/10/21 05:27:39;;;;;;;10.38;1.77;;;11.20;99.90;;;;;;5016146;28;20216;-79
2021/10/21 05:30:06;;;;;;;8.05;2.22;;;11.20;99.90;;;;;;5022063;28;20255;-89
2021/10/21 05:32:32;;;;;;;8.05;1.55;;;11.10;99.90;;;;;;5020370;28;20165;-80
2021/10/21 05:34:58;;;;;;;18.95;2.08;;;11.20;99.90;;;;;;5015746;28;20191;-81
2021/10/21 05:37:24;;;;;;;8.90;1.50;;;11.20;99.90;;;;;;5013444;28;20184;-81
2021/10/21 05:39:49;;;;;;;17.23;1.80;;;11.20;99.90;;;;;;5013044;28;20222;-80
2021/10/21 05:42:15;;;;;;;19.65;2.15;;;11.30;99.90;;;;;;5013773;28;20267;-81
2021/10/21 05:44:41;;;;;;;10.52;2.70;;;11.30;99.90;;;;;;5011448;28;20173;-80
2021/10/21 05:47:06;;;;;;;9.48;2.03;;;11.30;99.90;;;;;;5012851;28;20169;-81
2021/10/21 05:49:32;;;;;;;9.05;4.13;;;11.40;99.90;;;;;;5015909;28;20184;-79
2021/10/21 05:51:58;;;;;;;10.30;2.47;;;11.50;99.90;;;;;;5016705;28;20271;-82
2021/10/21 05:54:24;;;;;;;15.45;2.58;;;11.60;99.90;;;;;;5016086;28;20621;-82
2021/10/21 05:56:50;;;;;;;7.43;2.20;;;11.50;99.90;;;;;;5015991;28;20218;-80
2021/10/21 05:59:16;;;;;;;4.82;2.15;;;11.50;99.90;;;;;;5015088;28;20185;-80
2021/10/21 06:01:41;;;;;;;15.80;3.38;;;11.50;99.90;;;;;;5014983;28;20204;-79
2021/10/21 06:04:07;;;;;;;18.05;3.55;;;11.50;99.90;;;;;;5014858;28;20578;-80
2021/10/21 06:06:36;;;;;;;6.68;2.38;;;11.40;99.90;;;;;;5015538;28;20532;-81
2021/10/21 06:09:03;;;;;;;11.82;2.45;;;11.40;99.90;;;;;;5016202;28;20188;-80
2021/10/21 06:11:35;;;;;;;21.85;2.63;;;11.40;99.90;;;;;;5015824;28;20169;-80
2021/10/21 06:14:02;;;;;;;9.27;2.05;;;11.50;99.90;;;;;;5015740;28;20211;-80
2021/10/21 06:16:29;;;;;;;4.43;1.77;;;11.50;99.90;;;;;;5016269;28;20208;-80
2021/10/21 06:18:54;;;;;;;21.98;2.60;;;11.50;99.90;;;;;;5015874;28;20220;-80
2021/10/21 06:21:24;;;;;;;6.28;2.03;;;11.50;99.90;;;;;;5018335;28;20175;-80
2021/10/21 06:23:52;;;;;;;10.02;2.00;;;11.50;99.90;;;;;;5014077;28;20564;-80
2021/10/21 06:26:19;;;;;;;8.02;1.90;;;11.50;99.90;;;;;;5015289;28;20238;-79
2021/10/21 06:28:47;;;;;;;19.95;3.83;;;11.50;99.90;;;;;;5015268;28;20185;-82
2021/10/21 06:31:13;;;;;;;10.10;3.38;;;11.60;99.90;;;;;;5014753;28;20175;-81
2021/10/21 06:33:42;;;;;;;10.32;3.00;;;11.60;99.90;;;;;;5011915;28;20192;-94
2021/10/21 06:36:09;;;;;;;13.77;2.35;;;11.80;99.90;;;;;;5021592;28;20231;-87
2021/10/21 06:38:37;;;;;;;16.38;3.20;;;11.80;99.90;;;;;;5014939;28;20197;-86
2021/10/21 06:41:05;;;;;;;6.20;2.30;;;11.90;99.90;;;;;;5023593;28;20199;-80
2021/10/21 06:43:32;;;;;;;4.15;1.45;;;11.90;99.90;;;;;;5017015;28;20180;-85
2021/10/21 06:46:06;;;;;;;14.73;1.95;;;11.90;99.90;;;;;;5019523;28;20180;-92
2021/10/21 06:48:32;;;;;;;9.18;2.15;;;11.90;99.90;;;;;;5036170;28;20254;-83
2021/10/21 06:50:57;;;;;;;8.35;1.90;;;12.00;99.90;;;;;;5024773;28;20265;-81
2021/10/21 06:53:23;;;;;;;4.85;1.60;;;12.00;99.90;;;;;;5016699;28;20292;-84
2021/10/21 06:55:49;;;;;;;10.88;2.13;;;11.80;99.90;;;;;;5015610;28;20236;-83
2021/10/21 06:58:15;;;;;;;4.53;2.00;;;11.90;99.90;;;;;;5015422;28;20199;-89
2021/10/21 07:00:42;;;;;;;13.10;1.95;;;12.00;99.90;;;;;;5004489;28;20232;-84
2021/10/21 07:03:09;;;;;;;7.05;1.20;;;11.80;99.90;;;;;;5005255;28;20176;-84
2021/10/21 07:05:39;;;;;;;8.07;1.65;;;11.80;99.90;;;;;;5006821;28;20611;-78
2021/10/21 07:08:14;;;;;;;3.28;1.45;;;11.80;99.90;;;;;;5013408;28;20547;-82
2021/10/21 07:10:40;;;;;;;4.07;1.52;;;11.70;99.90;;;;;;5014693;28;20167;-80
2021/10/21 07:13:06;;;;;;;11.25;1.42;;;11.70;99.90;;;;;;5014834;28;20251;-78
2021/10/21 07:15:33;;;;;;;14.82;1.65;;;11.60;99.90;;;;;;5015012;28;20216;-79
2021/10/21 07:17:59;;;;;;;6.35;1.50;;;11.70;99.90;;;;;;5013206;28;20211;-79
2021/10/21 07:20:26;;;;;;;15.00;4.78;;;11.70;99.90;;;;;;5013619;28;20172;-78
2021/10/21 07:22:53;;;;;;;11.95;5.57;;;11.60;99.90;;;;;;5014200;28;20176;-78
2021/10/21 07:25:20;;;;;;;15.00;3.53;;;11.60;99.90;;;;;;5014997;28;20173;-78
2021/10/21 07:27:46;;;;;;;9.55;3.72;;;11.60;99.90;;;;;;5017075;28;20188;-78
2021/10/21 07:30:13;;;;;;;8.15;2.28;;;11.50;99.90;;;;;;5019868;28;20264;-78
2021/10/21 07:32:40;;;;;;;21.23;3.30;;;11.40;99.90;;;;;;5017122;28;20168;-78
2021/10/21 07:35:06;;;;;;;8.70;2.72;;;11.50;99.90;;;;;;4998331;28;20181;-79
2021/10/21 07:37:32;;;;;;;6.38;2.17;;;11.50;99.90;;;;;;5014527;28;20279;-78
2021/10/21 07:39:57;;;;;;;12.23;2.03;;;11.60;99.90;;;;;;5015260;28;20246;-78
2021/10/21 07:42:23;;;;;;;5.20;1.52;;;11.60;99.90;;;;;;5014824;28;20177;-78
2021/10/21 07:44:49;;;;;;;9.48;1.52;;;11.60;99.90;;;;;;5010959;28;20306;-77
2021/10/21 07:47:18;;;;;;;4.43;1.20;;;11.70;99.90;;;;;;5013555;28;20635;-77
2021/10/21 07:49:44;;;;;;;3.97;1.27;;;11.70;99.90;;;;;;5014562;28;20176;-84
2021/10/21 07:52:10;;;;;;;7.47;1.20;;;11.70;99.90;;;;;;5013118;28;20173;-78
2021/10/21 07:54:36;;;;;;;10.73;2.75;;;11.70;99.90;;;;;;5014180;28;20183;-81
2021/10/21 07:57:04;;;;;;;7.22;1.85;;;11.70;99.90;;;;;;5015087;28;20208;-78
2021/10/21 07:59:32;;;;;;;5.65;2.10;;;11.90;99.90;;;;;;5014220;28;20798;-76
2021/10/21 08:01:58;;;;;;;7.90;2.95;;;11.90;99.90;;;;;;5013751;28;20192;-79
2021/10/21 08:04:25;;;;;;;7.90;2.17;;;12.00;99.90;;;;;;5013735;28;20299;-78
2021/10/21 08:06:51;;;;;;;15.23;4.97;;;12.10;99.90;;;;;;5013994;28;20256;-80
2021/10/21 08:09:18;;;;;;;10.95;3.00;;;12.20;99.90;;;;;;5013485;28;20620;-79
2021/10/21 08:11:46;;;;;;;14.25;1.73;;;12.20;99.90;;;;;;5012978;28;20176;-79
2021/10/21 08:14:12;;;;;;;3.75;1.55;;;12.20;99.90;;;;;;5013629;28;20200;-79
2021/10/21 08:16:38;;;;;;;7.53;2.05;;;12.30;99.90;;;;;;5013046;28;20227;-80
2021/10/21 08:19:04;;;;;;;11.65;1.52;;;12.40;99.90;;;;;;5014073;28;20219;-79
2021/10/21 08:21:31;;;;;;;5.93;1.75;;;12.50;99.90;;;;;;5013943;28;20611;-78
2021/10/21 08:24:04;;;;;;;8.35;1.73;;;12.50;99.90;;;;;;5011214;28;20176;-81
2021/10/21 08:26:29;;;;;;;5.45;2.30;;;12.70;99.90;;;;;;5013765;28;20227;-79
2021/10/21 08:28:56;;;;;;;12.90;2.13;;;13.10;99.90;;;;;;5011581;28;20188;-82
2021/10/21 08:31:23;;;;;;;6.97;2.08;;;13.30;99.90;;;;;;5013671;28;20189;-83
2021/10/21 08:33:49;;;;;;;5.63;1.23;;;13.40;99.90;;;;;;5013440;28;20538;-80
2021/10/21 08:36:22;;;;;;;7.85;1.50;;;13.40;99.90;;;;;;5011851;28;20227;-81
2021/10/21 08:38:52;;;;;;;6.80;1.05;;;13.60;99.90;;;;;;5013035;28;20180;-80
2021/10/21 08:41:21;;;;;;;11.73;1.60;;;13.70;99.90;;;;;;5009769;28;20238;-79
2021/10/21 08:43:47;;;;;;;13.38;1.92;;;13.60;99.90;;;;;;5011356;28;20677;-82
2021/10/21 08:46:24;;;;;;;10.80;2.28;;;13.50;99.90;;;;;;5011319;28;20208;-80
2021/10/21 08:48:59;;;;;;;10.38;2.03;;;13.50;99.90;;;;;;5012556;28;20223;-81
2021/10/21 08:51:25;;;;;;;6.50;1.63;;;13.50;99.90;;;;;;5011229;28;20244;-80
2021/10/21 08:53:51;;;;;;;9.45;2.05;;;13.40;99.90;;;;;;5013587;28;20191;-83
2021/10/21 08:56:25;;;;;;;9.65;2.25;;;13.50;99.90;;;;;;5012969;28;20584;-83
2021/10/21 08:58:53;;;;;;;8.40;2.08;;;13.50;99.90;;;;;;5011830;28;20311;-81
2021/10/21 09:01:21;;;;;;;12.57;2.20;;;13.50;99.90;;;;;;5012959;28;20168;-85
2021/10/21 09:06:34;;;;;;;8.30;1.42;;;13.80;99.90;;;;;;5013776;28;20640;-82
2021/10/21 09:09:00;;;;;;;14.93;1.65;;;13.90;99.90;;;;;;5012323;28;20199;-79
2021/10/21 09:11:26;;;;;;;11.20;1.52;;;14.00;99.90;;;;;;5013281;28;20169;-79
2021/10/21 09:14:12;;;;;;;8.70;1.85;;;14.10;99.90;;;;;;5011810;28;20222;-79
2021/10/21 09:16:41;;;;;;;8.00;1.25;;;14.20;99.90;;;;;;5013235;28;20251;-80
2021/10/21 09:19:12;;;;;;;7.55;1.65;;;14.30;99.90;;;;;;5013064;28;20223;-86
2021/10/21 09:21:42;;;;;;;12.95;1.90;;;14.30;99.90;;;;;;5013125;28;20313;-84
2021/10/21 09:24:38;;;;;;;5.90;1.90;;;14.20;99.90;;;;;;5012646;28;20165;-84
2021/10/21 09:27:18;;;;;;;6.07;1.92;;;14.10;99.90;;;;;;5013056;28;20168;-82
2021/10/21 09:29:49;;;;;;;13.15;1.77;;;14.00;99.90;;;;;;5012238;28;20176;-79
2021/10/21 09:32:36;;;;;;;8.88;1.52;;;14.10;99.90;;;;;;5011399;28;20625;-79
2021/10/21 09:35:05;;;;;;;7.57;1.58;;;14.00;99.90;;;;;;5011835;28;20170;-79
2021/10/21 09:37:41;;;;;;;10.32;1.88;;;14.00;99.90;;;;;;5012013;28;20576;-79
2021/10/21 09:40:08;;;;;;;8.98;1.38;;;14.20;99.90;;;;;;5012189;28;20179;-79
2021/10/21 09:42:36;;;;;;;5.53;1.60;;;14.20;99.90;;;;;;5011718;28;20174;-79
2021/10/21 09:45:18;;;;;;;10.52;1.90;;;14.10;99.90;;;;;;5011293;28;20175;-79
2021/10/21 09:47:51;;;;;;;9.75;1.90;;;13.90;99.90;;;;;;5011405;28;20220;-79
2021/10/21 09:50:31;;;;;;;10.77;2.28;;;13.90;99.90;;;;;;5012015;28;20168;-79
2021/10/21 09:53:20;;;;;;;6.60;1.70;;;13.90;99.90;;;;;;5012654;28;20168;-80
2021/10/21 09:56:06;;;;;;;7.43;1.75;;;13.60;99.90;;;;;;5012485;28;20208;-82
2021/10/21 09:58:34;;;;;;;9.02;2.30;;;13.40;99.90;;;;;;5012080;28;20192;-82
2021/10/21 10:01:17;;;;;;;18.73;9.27;;;13.10;99.90;;;;;;5011956;28;20594;-80
2021/10/21 10:03:51;;;;;;;11.00;2.47;;;12.30;99.90;;;;;;5011834;28;20175;-79
2021/10/21 10:06:18;;;;;;;10.43;2.47;;;11.80;99.90;;;;;;5012483;28;20647;-81
2021/10/21 10:08:45;;;;;;;7.68;2.88;;;11.40;99.90;;;;;;5010629;28;20196;-79
2021/10/21 10:11:14;;;;;;;7.78;1.75;;;11.30;99.90;;;;;;5010956;28;20204;-82
2021/10/21 10:13:40;;;;;;;6.05;1.35;;;11.20;99.90;;;;;;5011384;28;20199;-82
2021/10/21 10:16:07;;;;;;;5.90;2.28;;;11.20;99.90;;;;;;5011067;28;20212;-80
2021/10/21 10:18:39;;;;;;;7.35;2.72;;;11.20;99.90;;;;;;5012149;28;20323;-83
2021/10/21 10:21:10;;;;;;;31.00;12.43;;;11.20;99.90;;;;;;5012525;28;20169;-79
2021/10/21 10:24:07;;;;;;;15.07;5.68;;;11.20;99.90;;;;;;5012648;28;20305;-80
2021/10/21 10:26:46;;;;;;;11.98;7.63;;;11.50;99.90;;;;;;4998075;28;20551;-78
2021/10/21 10:29:35;;;;;;;10.63;2.30;;;11.70;99.90;;;;;;5011525;28;20215;-81
2021/10/21 10:32:04;;;;;;;7.45;2.00;;;11.80;99.90;;;;;;5010117;28;20176;-81
2021/10/21 10:34:32;;;;;;;5.75;2.38;;;11.80;99.90;;;;;;5012099;28;20165;-81
2021/10/21 10:37:21;;;;;;;3.92;1.42;;;11.70;99.90;;;;;;5015680;28;20249;-84
2021/10/21 10:39:58;;;;;;;4.68;1.13;;;11.60;99.90;;;;;;5009732;28;20695;-79
2021/10/21 10:42:30;;;;;;;8.02;1.60;;;11.60;99.90;;;;;;5015595;28;20183;-80
2021/10/21 10:44:59;;;;;;;12.00;1.83;;;11.70;99.90;;;;;;5014122;28;20177;-81
2021/10/21 10:47:48;;;;;;;9.50;1.95;;;11.90;99.90;;;;;;5015704;28;20172;-81
2021/10/21 10:50:25;;;;;;;1.88;0.93;;;12.20;99.90;;;;;;5014603;28;20259;-78
2021/10/21 10:52:50;;;;;;;4.10;1.88;;;12.30;99.90;;;;;;4996022;28;20192;-79
2021/10/21 10:55:21;;;;;;;3.40;1.08;;;12.50;99.90;;;;;;4995912;28;20169;-79
2021/10/21 10:57:48;;;;;;;4.10;1.05;;;12.60;99.90;;;;;;4997770;28;20309;-80
2021/10/21 11:00:35;;;;;;;5.32;1.60;;;12.70;99.90;;;;;;5014227;28;20175;-79
2021/10/21 11:03:01;;;;;;;5.32;1.65;;;12.90;99.90;;;;;;5013706;28;20199;-79
2021/10/21 11:05:47;;;;;;;3.20;1.40;;;12.90;99.90;;;;;;5015345;28;20173;-83
2021/10/21 11:08:16;;;;;;;6.03;1.77;;;12.90;99.90;;;;;;5012922;28;20680;-80
2021/10/21 11:10:43;;;;;;;8.43;2.65;;;13.10;99.90;;;;;;5013630;28;20168;-78
2021/10/21 11:13:24;;;;;;;6.47;1.52;;;13.50;99.90;;;;;;5013492;28;20267;-81
2021/10/21 11:15:51;;;;;;;7.85;2.30;;;13.50;99.90;;;;;;5014554;28;21005;-82
2021/10/21 11:18:22;;;;;;;1.92;1.50;;;13.40;99.90;;;;;;5013313;28;20201;-84
2021/10/21 11:20:48;;;;;;;7.68;2.70;;;13.10;99.90;;;;;;5013702;28;20177;-81
2021/10/21 11:23:40;;;;;;;7.40;3.80;;;12.90;99.90;;;;;;5014740;28;20219;-83
2021/10/21 11:26:06;;;;;;;8.63;3.22;;;12.80;99.90;;;;;;5012519;28;20275;-81
2021/10/21 11:28:34;;;;;;;6.72;2.90;;;12.60;99.90;;;;;;5013836;28;20193;-83
2021/10/21 11:31:01;;;;;;;7.32;1.45;;;12.40;99.90;;;;;;5013455;28;20211;-79
2021/10/21 11:33:27;;;;;;;4.20;1.58;;;12.00;99.90;;;;;;5013580;28;20169;-79
2021/10/21 11:35:59;;;;;;;3.75;1.52;;;12.00;99.90;;;;;;5013674;28;20266;-80
2021/10/21 11:38:25;;;;;;;2.50;1.13;;;11.90;99.90;;;;;;5013222;28;20668;-87
2021/10/21 11:40:54;;;;;;;3.03;1.00;;;12.00;99.90;;;;;;5013174;28;20173;-79
2021/10/21 11:43:27;;;;;;;7.32;1.30;;;12.00;99.90;;;;;;5013855;28;20176;-80
2021/10/21 11:45:54;;;;;;;3.03;1.15;;;12.10;99.90;;;;;;5012229;28;20177;-80
2021/10/21 11:48:20;;;;;;;11.30;3.15;;;12.20;99.90;;;;;;5011723;28;20551;-80
2021/10/21 11:50:49;;;;;;;4.93;2.35;;;12.30;99.90;;;;;;5012069;28;20168;-79
2021/10/21 11:53:19;;;;;;;29.50;14.68;;;12.50;99.90;;;;;;5011841;28;20259;-80
2021/10/21 11:55:47;;;;;;;5.10;2.00;;;12.60;99.90;;;;;;5013961;28;20195;-80
2021/10/21 11:58:16;;;;;;;6.65;1.50;;;12.40;99.90;;;;;;5011958;28;20203;-88
2021/10/21 12:00:49;;;;;;;4.35;1.50;;;12.50;99.90;;;;;;5016173;28;20883;-89
2021/10/21 12:03:16;;;;;;;3.15;1.30;;;12.50;99.90;;;;;;5017109;28;20160;-90
2021/10/21 12:05:43;;;;;;;1.52;1.27;;;12.40;99.90;;;;;;5014636;28;20524;-82
2021/10/21 12:08:20;;;;;;;7.20;1.50;;;12.40;99.90;;;;;;5012125;28;20193;-78
2021/10/21 12:10:46;;;;;;;1.52;1.00;;;12.40;99.90;;;;;;5013380;28;20173;-79
2021/10/21 12:13:28;;;;;;;2.08;1.00;;;12.30;99.90;;;;;;5013528;28;20164;-79
2021/10/21 12:15:55;;;;;;;5.13;0.88;;;12.40;99.90;;;;;;5013856;28;20216;-78
2021/10/21 12:18:25;;;;;;;8.30;1.20;;;12.50;99.90;;;;;;5012944;28;20188;-79
2021/10/21 12:20:55;;;;;;;10.00;1.50;;;12.50;99.90;;;;;;5013515;28;20203;-79
2021/10/21 12:23:27;;;;;;;3.03;0.90;;;12.50;99.90;;;;;;5013269;28;20168;-79
2021/10/21 12:25:57;;;;;;;4.18;1.33;;;12.50;99.90;;;;;;5013357;28;21396;-79
2021/10/21 12:28:53;;;;;;;7.97;1.48;;;12.50;99.90;;;;;;5013015;28;20239;-78
2021/10/21 12:31:40;;;;;;;5.88;1.55;;;12.50;99.90;;;;;;5013275;28;20218;-78
2021/10/21 12:34:13;;;;;;;10.40;1.13;;;12.60;99.90;;;;;;5013104;28;20168;-79
2021/10/21 12:36:47;;;;;;;3.63;1.20;;;12.60;99.90;;;;;;5013263;28;20200;-79
2021/10/21 12:39:15;;;;;;;9.20;2.08;;;12.50;99.90;;;;;;5011585;28;20595;-79
2021/10/21 12:42:02;;;;;;;9.98;1.50;;;12.50;99.90;;;;;;5013319;28;20575;-79
2021/10/21 12:44:33;;;;;;;3.38;1.52;;;12.50;99.90;;;;;;5012984;28;20176;-79
2021/10/21 12:47:25;;;;;;;11.20;2.30;;;12.70;99.90;;;;;;5012882;28;20255;-79
2021/10/21 12:50:08;;;;;;;3.60;1.77;;;12.70;99.90;;;;;;5011435;28;20678;-79
2021/10/21 12:52:40;;;;;;;17.42;6.50;;;12.90;99.90;;;;;;5013042;28;20229;-78
2021/10/21 12:55:23;;;;;;;8.77;1.30;;;13.20;99.90;;;;;;5010847;28;20164;-79
2021/10/21 12:58:02;;;;;;;5.75;1.90;;;13.40;99.90;;;;;;5011519;28;20200;-78